Карточка аэропорта UIAA

Внимание!
Информация на этой странице в стадии наполнения.
Если вы не увидели какой-то информации, или заметили неточность - пожалуйста сообщите нам!
Спасибо!
Команда RU-STAFF
Название аэропортаКадала
Название аэропорта (англ.)Kadala
Превышение2272 ft. (692.5 m.)
Координаты52°1.5779999999999', 113°18.3'
Высота перехода1850m
Эшелон переходаFL100
Коды ответчика3350-3377
Зона ОрВДИркутск РПИ (UIII)
Данные METARUIAA 241330Z AUTO 08003MPS 9999 NCD 09/04 Q1018 RMK QFE705/0940
Проноз погоды (TAF)UIAA 241100Z 2412/2512 09003MPS 9999 SCT040CB TEMPO 2412/2503 15005MPS 3100 -SHRA TEMPO 2503/2509 15008G15MPS 3100 -SHRA OVC014CB
NOTAMshow/hide NOTAM
AWOS   TABLE

Информация о ВПП


Диспетчерские позиции

Позывной Наименование органа УВД Частота
UIAA_APPЧита-Подход122.0
UIAA_TWRЧита-Вышка118.1
UIAA_GNDЧита Земля118.8



Спутниковое изображение